Time;durP1;ratioP1;P1;durP2;ratioP2;P2;SDS_P1;SDS_P2;PMS_P1;PMS_P2;Temp;Humidity;BMP_temperature;BMP_pressure;BME280_temperature;BME280_humidity;BME280_pressure;Samples;Min_cycle;Max_cycle;Signal;HPM_P1;HPM_P2
2021/07/15 00:00:40;;;;;;;3.13;2.92;;;26.30;58.70;;;;;;5002464;28;20095;-61
2021/07/15 00:03:09;;;;;;;3.05;2.75;;;26.30;58.80;;;;;;5011776;28;20033;-63
2021/07/15 00:05:38;;;;;;;3.13;2.85;;;26.30;58.80;;;;;;5008156;28;20034;-61
2021/07/15 00:08:06;;;;;;;3.75;3.45;;;26.30;58.80;;;;;;5004165;28;20049;-61
2021/07/15 00:10:51;;;;;;;3.47;3.17;;;26.30;58.80;;;;;;5000566;28;20045;-62
2021/07/15 00:13:18;;;;;;;3.00;2.80;;;26.30;58.80;;;;;;5009287;28;20140;-63
2021/07/15 00:15:48;;;;;;;3.25;2.95;;;26.30;58.90;;;;;;4997673;28;20037;-62
2021/07/15 00:18:16;;;;;;;3.03;2.78;;;26.30;58.90;;;;;;5005810;28;20068;-62
2021/07/15 00:20:47;;;;;;;2.80;2.60;;;26.20;58.80;;;;;;5008600;28;20081;-62
2021/07/15 00:23:14;;;;;;;2.97;2.72;;;26.20;58.80;;;;;;5002840;28;20358;-64
2021/07/15 00:25:41;;;;;;;3.28;2.83;;;26.20;58.90;;;;;;5007025;28;20029;-64
2021/07/15 00:28:06;;;;;;;3.00;2.80;;;26.20;58.90;;;;;;5007634;28;20033;-62
2021/07/15 00:30:32;;;;;;;2.58;2.38;;;26.20;58.90;;;;;;5007228;28;20121;-62
2021/07/15 00:32:58;;;;;;;2.78;2.50;;;26.20;58.90;;;;;;5011574;28;20026;-61
2021/07/15 00:35:24;;;;;;;2.40;2.20;;;26.20;58.90;;;;;;5011516;28;20030;-62
2021/07/15 00:37:50;;;;;;;2.25;2.05;;;26.20;58.90;;;;;;5005381;28;20109;-63
2021/07/15 00:40:17;;;;;;;2.50;2.30;;;26.20;59.00;;;;;;5009732;28;20038;-62
2021/07/15 00:42:44;;;;;;;2.35;2.15;;;26.20;58.90;;;;;;5018071;28;20034;-60
2021/07/15 00:45:11;;;;;;;2.10;1.90;;;26.20;59.00;;;;;;5005628;28;20070;-61
2021/07/15 00:47:37;;;;;;;2.45;2.25;;;26.20;59.00;;;;;;4995963;28;20069;-61
2021/07/15 00:50:06;;;;;;;2.50;2.30;;;26.10;58.90;;;;;;5004873;28;20319;-62
2021/07/15 00:52:33;;;;;;;1.98;1.88;;;26.20;59.00;;;;;;5007123;28;20096;-60
2021/07/15 00:54:59;;;;;;;2.60;2.40;;;26.20;59.00;;;;;;5008366;28;20026;-62
2021/07/15 00:57:25;;;;;;;2.50;2.30;;;26.10;58.90;;;;;;5000581;28;20022;-62
2021/07/15 00:59:52;;;;;;;2.38;2.17;;;26.10;59.00;;;;;;5009169;28;20058;-61
2021/07/15 01:02:19;;;;;;;2.53;2.33;;;26.10;59.00;;;;;;4999022;28;20053;-63
2021/07/15 01:04:45;;;;;;;2.30;2.10;;;26.10;59.00;;;;;;5000035;28;20329;-64
2021/07/15 01:07:11;;;;;;;2.78;2.58;;;26.10;59.00;;;;;;4999650;28;20038;-63
2021/07/15 01:09:37;;;;;;;2.90;2.70;;;26.10;59.00;;;;;;5004150;28;20022;-62
2021/07/15 01:12:26;;;;;;;2.90;2.70;;;26.10;59.00;;;;;;5000478;28;20393;-61
2021/07/15 01:15:18;;;;;;;2.55;2.10;;;26.10;59.00;;;;;;4995527;28;20086;-62
2021/07/15 01:17:44;;;;;;;2.88;2.53;;;26.10;58.90;;;;;;5007082;28;20449;-61
2021/07/15 01:20:29;;;;;;;2.78;2.53;;;26.10;59.00;;;;;;5011054;28;20041;-63
2021/07/15 01:23:36;;;;;;;3.38;2.72;;;26.10;58.90;;;;;;4996906;28;20116;-61
2021/07/15 01:26:14;;;;;;;2.47;2.28;;;26.10;58.90;;;;;;4991033;28;20034;-62
2021/07/15 01:28:57;;;;;;;2.67;2.47;;;26.10;59.00;;;;;;5003977;28;20088;-61
2021/07/15 01:31:24;;;;;;;2.70;2.00;;;26.10;59.00;;;;;;5003342;28;20038;-60
2021/07/15 01:33:51;;;;;;;2.50;2.30;;;26.00;59.00;;;;;;5001358;28;20053;-61
2021/07/15 01:36:22;;;;;;;2.50;2.30;;;26.00;59.00;;;;;;4996588;28;20030;-61
2021/07/15 01:38:55;;;;;;;2.60;2.40;;;26.10;59.10;;;;;;5011658;28;20029;-62
2021/07/15 01:41:31;;;;;;;2.50;2.30;;;26.00;59.00;;;;;;5003196;28;20335;-61
2021/07/15 01:44:10;;;;;;;2.70;2.50;;;26.10;59.00;;;;;;5003854;28;20442;-60
2021/07/15 01:46:36;;;;;;;2.33;2.15;;;26.00;59.00;;;;;;5003409;28;20033;-60
2021/07/15 01:49:06;;;;;;;2.45;2.25;;;26.00;59.00;;;;;;5006739;28;20045;-64
2021/07/15 01:51:34;;;;;;;2.33;2.13;;;26.00;59.00;;;;;;5005522;28;20095;-62
2021/07/15 01:54:01;;;;;;;2.47;2.17;;;26.00;59.00;;;;;;5010165;28;20029;-63
2021/07/15 01:56:27;;;;;;;2.42;2.22;;;26.00;59.00;;;;;;5008945;28;20465;-61
2021/07/15 01:58:54;;;;;;;2.88;2.33;;;26.00;59.00;;;;;;5000003;28;20473;-63
2021/07/15 02:01:21;;;;;;;2.30;2.10;;;26.00;58.90;;;;;;5006770;28;20431;-60
2021/07/15 02:03:52;;;;;;;2.60;2.40;;;26.00;58.90;;;;;;5008483;28;20045;-60
2021/07/15 02:06:19;;;;;;;2.60;2.40;;;26.00;58.90;;;;;;5003541;28;20054;-64
2021/07/15 02:08:46;;;;;;;2.90;2.70;;;26.00;58.90;;;;;;5009164;28;20457;-62
2021/07/15 02:11:15;;;;;;;3.55;3.08;;;25.90;58.90;;;;;;5001672;28;20025;-62
2021/07/15 02:13:43;;;;;;;2.70;2.50;;;26.00;58.90;;;;;;5004399;28;20030;-63
2021/07/15 02:16:17;;;;;;;3.00;2.70;;;26.00;58.90;;;;;;5006576;28;20040;-60
2021/07/15 02:18:45;;;;;;;2.92;2.72;;;26.00;58.90;;;;;;5004886;28;20060;-61
2021/07/15 02:21:13;;;;;;;2.67;2.47;;;25.90;58.80;;;;;;4999576;28;20449;-61
2021/07/15 02:23:42;;;;;;;3.40;3.10;;;25.90;59.40;;;;;;5002943;28;20118;-62
2021/07/15 02:26:08;;;;;;;2.85;2.55;;;26.00;58.90;;;;;;4997834;28;20022;-63
2021/07/15 02:28:34;;;;;;;2.90;2.67;;;26.00;58.90;;;;;;5011795;28;20025;-63
2021/07/15 02:31:13;;;;;;;3.17;2.72;;;25.90;58.80;;;;;;5007815;28;20047;-62
2021/07/15 02:33:44;;;;;;;2.70;2.50;;;25.90;58.80;;;;;;5008276;28;20077;-62
2021/07/15 02:36:11;;;;;;;2.88;2.58;;;25.90;58.80;;;;;;5009475;28;20103;-61
2021/07/15 02:38:40;;;;;;;3.00;2.70;;;25.90;59.40;;;;;;5010171;28;20022;-62
2021/07/15 02:41:06;;;;;;;2.85;2.60;;;25.90;58.80;;;;;;5002502;28;20026;-62
2021/07/15 02:43:32;;;;;;;2.92;2.72;;;25.90;58.80;;;;;;4999296;28;20026;-62
2021/07/15 02:45:58;;;;;;;3.13;2.83;;;25.90;58.80;;;;;;5007543;28;20030;-63
2021/07/15 02:48:24;;;;;;;3.22;2.92;;;25.90;58.80;;;;;;5005843;28;20105;-62
2021/07/15 02:50:49;;;;;;;3.00;2.65;;;25.90;58.90;;;;;;5003918;28;20025;-64
2021/07/15 02:53:18;;;;;;;3.00;2.70;;;25.90;58.90;;;;;;5001861;28;20350;-65
2021/07/15 02:55:52;;;;;;;3.42;3.13;;;25.90;58.90;;;;;;5012088;28;20029;-63
2021/07/15 02:58:30;;;;;;;2.95;2.65;;;25.90;58.90;;;;;;5002889;28;20026;-62
2021/07/15 03:01:06;;;;;;;3.13;2.83;;;25.90;58.90;;;;;;5012033;28;20033;-62
2021/07/15 03:03:57;;;;;;;2.75;2.55;;;25.90;58.80;;;;;;5005859;28;20057;-63
2021/07/15 03:06:37;;;;;;;2.83;2.60;;;25.90;58.80;;;;;;5002293;28;20470;-63
2021/07/15 03:09:31;;;;;;;2.95;2.65;;;25.90;58.80;;;;;;4997811;28;20521;-63
2021/07/15 03:12:06;;;;;;;2.95;2.35;;;25.90;58.80;;;;;;5006697;28;20034;-61
2021/07/15 03:14:38;;;;;;;2.80;2.60;;;25.80;58.80;;;;;;5002289;28;20034;-61
2021/07/15 03:17:08;;;;;;;2.40;2.20;;;25.80;58.80;;;;;;5011086;28;20029;-58
2021/07/15 03:19:37;;;;;;;2.40;2.20;;;25.80;58.80;;;;;;5011316;28;20037;-61
2021/07/15 03:22:05;;;;;;;2.95;2.65;;;25.90;58.90;;;;;;5003815;28;20034;-64
2021/07/15 03:24:42;;;;;;;2.13;2.03;;;25.80;58.80;;;;;;5013596;28;20033;-59
2021/07/15 03:27:08;;;;;;;2.17;2.08;;;25.80;58.70;;;;;;4999947;28;20145;-62
2021/07/15 03:29:37;;;;;;;2.40;2.20;;;25.80;58.80;;;;;;5011924;28;20049;-64
2021/07/15 03:32:05;;;;;;;2.60;2.40;;;25.90;58.80;;;;;;5008338;28;20023;-61
2021/07/15 03:34:33;;;;;;;2.10;1.90;;;25.80;58.70;;;;;;5005081;28;20078;-62
2021/07/15 03:37:00;;;;;;;2.15;1.95;;;25.80;58.70;;;;;;5004586;28;20444;-63
2021/07/15 03:39:27;;;;;;;1.73;1.63;;;25.80;58.70;;;;;;5011383;28;20365;-61
2021/07/15 03:41:53;;;;;;;2.15;1.95;;;25.80;58.70;;;;;;5011384;28;20030;-63
2021/07/15 03:44:21;;;;;;;2.00;1.90;;;25.80;58.70;;;;;;5006553;28;20056;-59
2021/07/15 03:46:49;;;;;;;2.00;1.80;;;25.80;58.70;;;;;;5001179;28;20038;-63
2021/07/15 03:49:17;;;;;;;1.65;1.55;;;25.80;58.70;;;;;;5009425;28;20159;-62
2021/07/15 03:51:45;;;;;;;2.25;2.05;;;25.80;58.70;;;;;;5004427;28;20046;-63
2021/07/15 03:54:12;;;;;;;1.83;1.60;;;25.80;58.70;;;;;;5007586;28;20022;-63
2021/07/15 03:56:41;;;;;;;1.63;1.52;;;25.80;58.70;;;;;;5003927;28;20434;-62
2021/07/15 03:59:07;;;;;;;1.63;1.52;;;25.80;58.70;;;;;;5016211;28;20022;-64
2021/07/15 04:01:34;;;;;;;1.92;1.73;;;25.80;58.70;;;;;;5002435;28;20030;-61
2021/07/15 04:04:01;;;;;;;2.00;1.70;;;25.80;58.70;;;;;;5021002;28;20121;-63
2021/07/15 04:06:28;;;;;;;1.55;1.45;;;25.80;58.70;;;;;;5022760;28;20061;-62
2021/07/15 04:08:55;;;;;;;1.90;1.70;;;25.80;58.70;;;;;;5025862;28;20112;-59
2021/07/15 04:11:24;;;;;;;1.80;1.70;;;25.80;58.70;;;;;;5015428;28;20113;-65
2021/07/15 04:13:51;;;;;;;1.88;1.77;;;25.80;58.70;;;;;;5016639;28;20039;-61
2021/07/15 04:16:45;;;;;;;1.98;1.80;;;25.70;58.70;;;;;;5012344;28;20100;-63
2021/07/15 04:19:13;;;;;;;1.45;1.35;;;25.80;58.70;;;;;;5020595;28;20113;-60
2021/07/15 04:21:40;;;;;;;1.48;1.38;;;25.70;58.70;;;;;;5021125;28;20030;-61
2021/07/15 04:24:08;;;;;;;2.00;1.80;;;25.80;58.80;;;;;;5015733;28;20061;-61
2021/07/15 04:26:35;;;;;;;1.85;1.50;;;25.80;58.70;;;;;;5030702;28;20104;-64
2021/07/15 04:29:03;;;;;;;1.40;1.30;;;25.70;58.70;;;;;;5023454;28;20046;-63
2021/07/15 04:31:43;;;;;;;1.45;1.15;;;25.80;58.80;;;;;;5018711;28;20037;-62
2021/07/15 04:34:10;;;;;;;1.40;1.30;;;25.80;58.80;;;;;;5013785;28;20330;-62
2021/07/15 04:36:37;;;;;;;1.45;1.35;;;25.70;58.70;;;;;;5030501;28;20120;-61
2021/07/15 04:39:04;;;;;;;1.40;1.30;;;25.70;58.70;;;;;;5034845;28;20080;-61
2021/07/15 04:41:30;;;;;;;1.50;1.40;;;25.70;58.80;;;;;;5026796;28;20037;-61
2021/07/15 04:43:58;;;;;;;1.55;1.27;;;25.70;58.80;;;;;;5014922;28;20088;-63
2021/07/15 04:46:25;;;;;;;1.48;1.38;;;25.70;58.80;;;;;;5029886;28;20421;-62
2021/07/15 04:48:52;;;;;;;1.35;1.25;;;25.70;58.80;;;;;;5020766;28;20052;-62
2021/07/15 04:51:18;;;;;;;1.70;1.50;;;25.70;58.80;;;;;;5027618;28;20044;-61
2021/07/15 04:53:47;;;;;;;1.70;1.60;;;25.70;58.80;;;;;;5016001;28;20108;-62
2021/07/15 04:56:15;;;;;;;1.65;1.55;;;25.70;58.80;;;;;;5019182;28;20061;-61
2021/07/15 04:58:42;;;;;;;2.25;1.70;;;25.70;58.80;;;;;;5029761;28;20033;-62
2021/07/15 05:01:10;;;;;;;2.30;2.10;;;25.70;58.80;;;;;;5016926;28;20091;-64
2021/07/15 05:03:38;;;;;;;2.00;1.80;;;25.70;58.80;;;;;;4995804;28;20096;-61
2021/07/15 05:06:07;;;;;;;1.90;1.80;;;25.70;58.80;;;;;;5011266;28;20025;-61
2021/07/15 05:08:37;;;;;;;2.05;1.80;;;25.70;58.80;;;;;;5027060;28;20042;-60
2021/07/15 05:11:03;;;;;;;2.72;2.20;;;25.70;58.80;;;;;;5015827;28;20026;-62
2021/07/15 05:13:29;;;;;;;2.28;2.08;;;25.70;58.90;;;;;;5012822;28;20036;-61
2021/07/15 05:15:55;;;;;;;2.88;2.42;;;25.70;58.80;;;;;;5014589;28;20123;-61
2021/07/15 05:18:21;;;;;;;2.35;2.00;;;25.70;58.90;;;;;;5008084;28;20117;-60
2021/07/15 05:20:47;;;;;;;2.50;2.30;;;25.70;58.90;;;;;;5001388;28;20030;-60
2021/07/15 05:23:13;;;;;;;2.70;2.30;;;25.70;58.90;;;;;;5032896;28;20099;-61
2021/07/15 05:25:40;;;;;;;2.22;2.05;;;25.70;58.90;;;;;;5032782;28;20041;-62
2021/07/15 05:28:06;;;;;;;2.58;2.38;;;25.70;58.90;;;;;;5029536;28;20034;-62
2021/07/15 05:30:32;;;;;;;2.60;2.40;;;25.70;58.90;;;;;;5012637;28;20048;-62
2021/07/15 05:32:58;;;;;;;2.40;2.20;;;25.60;58.90;;;;;;5005672;28;20438;-61
2021/07/15 05:35:25;;;;;;;2.97;2.35;;;25.70;58.90;;;;;;4995882;28;20038;-62
2021/07/15 05:37:51;;;;;;;2.40;2.20;;;25.70;58.90;;;;;;5014278;28;20049;-62
2021/07/15 05:40:17;;;;;;;2.67;2.30;;;25.70;58.90;;;;;;4999586;28;20033;-60
2021/07/15 05:42:43;;;;;;;3.03;2.72;;;25.60;58.90;;;;;;5025337;28;20087;-60
2021/07/15 05:45:09;;;;;;;2.90;2.50;;;25.70;59.00;;;;;;5021907;28;20477;-64
2021/07/15 05:47:35;;;;;;;2.70;2.25;;;25.70;58.90;;;;;;5026368;28;20046;-62
2021/07/15 05:50:01;;;;;;;2.67;2.47;;;25.70;59.00;;;;;;4995626;28;20029;-61
2021/07/15 05:52:27;;;;;;;3.03;2.72;;;25.70;58.90;;;;;;5018077;28;20033;-62
2021/07/15 05:54:56;;;;;;;2.50;2.30;;;25.60;58.90;;;;;;5029562;28;20330;-61
2021/07/15 05:57:23;;;;;;;3.80;3.00;;;25.70;59.00;;;;;;5033663;28;20038;-60
2021/07/15 05:59:49;;;;;;;3.38;3.08;;;25.70;59.00;;;;;;5010644;28;20158;-62
2021/07/15 06:02:15;;;;;;;3.40;3.10;;;25.60;58.90;;;;;;5003004;28;20475;-61
2021/07/15 06:04:41;;;;;;;3.95;2.95;;;25.60;58.90;;;;;;5016269;28;20357;-65
2021/07/15 06:07:08;;;;;;;3.17;2.83;;;25.70;59.00;;;;;;5032866;28;20025;-61
2021/07/15 06:09:34;;;;;;;3.42;2.80;;;25.60;58.90;;;;;;4997742;28;20042;-61
2021/07/15 06:11:59;;;;;;;3.20;2.90;;;25.60;58.90;;;;;;5003682;28;20025;-62
2021/07/15 06:14:25;;;;;;;3.42;2.95;;;25.60;58.90;;;;;;5017042;28;20026;-62
2021/07/15 06:16:51;;;;;;;4.22;3.40;;;25.60;59.00;;;;;;5018246;28;20340;-60
2021/07/15 06:19:17;;;;;;;3.72;3.30;;;25.60;58.90;;;;;;5017478;28;20340;-60
2021/07/15 06:21:43;;;;;;;3.63;3.33;;;25.60;59.00;;;;;;5017545;28;20639;-60
2021/07/15 06:24:10;;;;;;;4.38;3.50;;;25.70;59.00;;;;;;5001270;28;20035;-61
2021/07/15 06:26:36;;;;;;;4.90;3.63;;;25.60;59.00;;;;;;5016519;28;20038;-61
2021/07/15 06:29:03;;;;;;;4.15;3.75;;;25.60;59.00;;;;;;5004129;28;20465;-61
2021/07/15 06:31:29;;;;;;;3.78;3.38;;;25.60;59.00;;;;;;5025584;28;20060;-62
2021/07/15 06:33:55;;;;;;;3.55;2.97;;;25.60;59.00;;;;;;5023987;28;20108;-62
2021/07/15 06:36:21;;;;;;;3.97;3.40;;;25.60;59.00;;;;;;5018390;28;20434;-63
2021/07/15 06:38:47;;;;;;;3.85;3.15;;;25.60;59.10;;;;;;5024290;28;20041;-60
2021/07/15 06:41:14;;;;;;;3.30;3.00;;;25.60;59.00;;;;;;5016214;28;20076;-63
2021/07/15 06:43:41;;;;;;;3.40;3.00;;;25.60;59.10;;;;;;5004663;28;20030;-61
2021/07/15 06:46:07;;;;;;;3.15;2.85;;;25.60;59.00;;;;;;5013209;28;20022;-64
2021/07/15 06:48:33;;;;;;;3.35;3.05;;;25.60;59.00;;;;;;5031255;28;20107;-63
2021/07/15 06:50:59;;;;;;;3.22;2.90;;;25.60;59.00;;;;;;5019378;28;20033;-64
2021/07/15 06:53:25;;;;;;;3.75;2.85;;;25.60;59.00;;;;;;5033344;28;20033;-64
2021/07/15 06:55:51;;;;;;;3.10;2.80;;;25.60;59.10;;;;;;5003612;28;20045;-61
2021/07/15 06:58:17;;;;;;;3.05;2.80;;;25.70;59.20;;;;;;5006500;28;20390;-63
2021/07/15 07:00:43;;;;;;;3.40;2.95;;;25.60;59.20;;;;;;5025294;28;20029;-64
2021/07/15 07:03:12;;;;;;;2.80;2.53;;;25.70;59.30;;;;;;5016751;28;20041;-62
2021/07/15 07:05:39;;;;;;;2.95;2.65;;;25.70;59.20;;;;;;5000135;28;20022;-62
2021/07/15 07:08:05;;;;;;;2.42;2.22;;;25.80;59.20;;;;;;5004223;28;20042;-64
2021/07/15 07:10:31;;;;;;;2.28;2.08;;;25.90;59.20;;;;;;5005427;28;20105;-62
2021/07/15 07:12:57;;;;;;;1.65;1.55;;;25.90;59.00;;;;;;5015117;28;20120;-62
2021/07/15 07:15:22;;;;;;;2.30;2.10;;;25.90;59.50;;;;;;5014762;28;20417;-61
2021/07/15 07:17:48;;;;;;;1.60;1.48;;;25.90;58.80;;;;;;5002854;28;20448;-63
2021/07/15 07:20:15;;;;;;;3.70;2.03;;;25.90;58.70;;;;;;5025938;28;20030;-63
2021/07/15 07:22:41;;;;;;;2.60;1.85;;;26.00;58.70;;;;;;5016500;28;20103;-64
2021/07/15 07:25:08;;;;;;;2.35;2.00;;;26.00;58.60;;;;;;5026093;28;20065;-61
2021/07/15 07:27:35;;;;;;;1.80;1.70;;;26.00;58.50;;;;;;5014800;28;20491;-64
2021/07/15 07:30:02;;;;;;;1.90;1.70;;;26.10;58.50;;;;;;5031617;28;20053;-66
2021/07/15 07:32:27;;;;;;;2.10;1.90;;;26.10;58.40;;;;;;5017642;28;20107;-64
2021/07/15 07:34:53;;;;;;;1.80;1.70;;;26.10;58.30;;;;;;5022013;28;20034;-64
2021/07/15 07:37:19;;;;;;;2.17;1.90;;;26.10;58.20;;;;;;5003355;28;20149;-63
2021/07/15 07:39:45;;;;;;;2.10;1.90;;;26.10;58.20;;;;;;4997317;28;20046;-66
2021/07/15 07:42:11;;;;;;;2.17;1.90;;;26.10;58.30;;;;;;5022016;28;20025;-64
2021/07/15 07:44:37;;;;;;;2.78;2.00;;;26.20;58.40;;;;;;5035800;28;20044;-66
2021/07/15 07:47:03;;;;;;;2.75;2.00;;;26.20;58.40;;;;;;5027630;28;20440;-59
2021/07/15 07:49:31;;;;;;;2.65;2.40;;;26.20;58.30;;;;;;5007400;28;20038;-60
2021/07/15 07:51:58;;;;;;;2.67;2.17;;;26.20;58.30;;;;;;5016063;28;20026;-60
2021/07/15 07:54:24;;;;;;;2.15;1.92;;;26.20;58.20;;;;;;5013145;28;20057;-61
2021/07/15 07:56:50;;;;;;;2.83;2.22;;;26.30;58.20;;;;;;5005557;28;20030;-62
2021/07/15 07:59:16;;;;;;;2.42;2.20;;;26.30;58.10;;;;;;4997979;28;20034;-61
2021/07/15 08:01:42;;;;;;;2.55;2.30;;;26.30;58.00;;;;;;5003738;28;20030;-60
2021/07/15 08:04:08;;;;;;;2.63;2.17;;;26.30;57.90;;;;;;5002800;28;20119;-61
2021/07/15 08:06:35;;;;;;;2.75;2.30;;;26.30;57.90;;;;;;5002404;28;20034;-58
2021/07/15 08:09:09;;;;;;;2.72;2.47;;;26.30;57.80;;;;;;5009652;28;20060;-60
2021/07/15 08:11:35;;;;;;;2.55;1.98;;;26.30;57.80;;;;;;5001944;28;20033;-61
2021/07/15 08:14:05;;;;;;;2.60;1.92;;;26.30;57.80;;;;;;5002841;28;20100;-61
2021/07/15 08:16:31;;;;;;;2.70;2.17;;;26.30;57.70;;;;;;5022038;28;20025;-61
2021/07/15 08:19:00;;;;;;;1.98;1.80;;;26.30;57.70;;;;;;5000578;28;20037;-60
2021/07/15 08:21:26;;;;;;;2.10;1.92;;;26.40;57.70;;;;;;5013481;28;20107;-64
2021/07/15 08:23:53;;;;;;;2.60;1.80;;;26.40;57.70;;;;;;5008467;28;20033;-64
2021/07/15 08:26:19;;;;;;;2.28;2.00;;;26.40;57.60;;;;;;4995297;28;20033;-62
2021/07/15 08:28:46;;;;;;;1.80;1.70;;;26.40;57.60;;;;;;4998287;28;20128;-62
2021/07/15 08:31:12;;;;;;;2.42;1.70;;;26.40;57.50;;;;;;5002735;28;20034;-62
2021/07/15 08:33:38;;;;;;;1.85;1.70;;;26.40;57.50;;;;;;5000901;28;20048;-60
2021/07/15 08:36:05;;;;;;;1.60;1.40;;;26.40;57.50;;;;;;4999995;28;20026;-59
2021/07/15 08:38:30;;;;;;;1.83;1.50;;;26.40;57.50;;;;;;5000586;28;20053;-54
2021/07/15 08:40:56;;;;;;;2.20;1.50;;;26.40;57.40;;;;;;5008334;28;20449;-60
2021/07/15 08:43:22;;;;;;;1.55;1.45;;;26.40;57.40;;;;;;5004038;28;20576;-58
2021/07/15 08:45:49;;;;;;;1.52;1.35;;;26.40;57.40;;;;;;5005485;28;20034;-59
2021/07/15 08:48:17;;;;;;;1.85;1.45;;;26.40;57.40;;;;;;5006699;28;20060;-59
2021/07/15 08:50:43;;;;;;;1.98;1.58;;;26.40;57.40;;;;;;5006561;28;20042;-61
2021/07/15 08:53:10;;;;;;;1.63;1.50;;;26.40;57.30;;;;;;5009193;28;20349;-60
2021/07/15 08:58:20;;;;;;;2.58;1.55;;;26.40;57.20;;;;;;5014859;28;20037;-57
2021/07/15 09:00:48;;;;;;;2.78;1.67;;;26.40;57.80;;;;;;5016822;28;20480;-59
2021/07/15 09:03:14;;;;;;;2.22;1.60;;;26.40;57.20;;;;;;5034324;28;20029;-56
2021/07/15 09:05:42;;;;;;;2.88;1.60;;;26.40;57.10;;;;;;5032535;28;20103;-59
2021/07/15 09:08:08;;;;;;;2.80;1.67;;;26.40;57.10;;;;;;5009612;28;20097;-59
2021/07/15 09:10:33;;;;;;;2.17;1.58;;;26.40;57.10;;;;;;5015526;28;20029;-57
2021/07/15 09:13:00;;;;;;;2.45;1.90;;;26.40;57.10;;;;;;5022484;28;20022;-59
2021/07/15 09:15:26;;;;;;;2.28;1.70;;;26.40;57.00;;;;;;5032715;28;20337;-61
2021/07/15 09:17:52;;;;;;;3.10;2.00;;;26.40;57.00;;;;;;5034104;28;20037;-58
2021/07/15 09:20:21;;;;;;;3.05;1.70;;;26.40;57.00;;;;;;5020955;28;20419;-61
2021/07/15 09:23:05;;;;;;;3.03;1.77;;;26.40;57.00;;;;;;5009476;28;20119;-60
2021/07/15 09:25:37;;;;;;;2.80;1.80;;;26.40;56.90;;;;;;5014836;28;20057;-60
2021/07/15 09:28:10;;;;;;;2.67;1.90;;;26.40;57.00;;;;;;5014218;28;20037;-55
2021/07/15 09:30:37;;;;;;;4.97;1.80;;;26.40;57.00;;;;;;5012071;28;20049;-59
2021/07/15 09:33:06;;;;;;;3.78;1.85;;;26.40;57.20;;;;;;5008344;28;20026;-64
2021/07/15 09:35:35;;;;;;;1.98;1.73;;;26.50;57.40;;;;;;5002789;28;20091;-55
2021/07/15 09:38:21;;;;;;;3.47;1.77;;;26.50;57.40;;;;;;5029969;28;20021;-62
2021/07/15 09:40:52;;;;;;;2.70;1.83;;;26.50;57.40;;;;;;5023572;28;20038;-61
2021/07/15 09:43:17;;;;;;;1.65;1.45;;;26.50;57.40;;;;;;5037716;28;20114;-58
2021/07/15 09:45:45;;;;;;;1.67;1.50;;;26.60;57.40;;;;;;5021475;28;20030;-60
2021/07/15 09:48:21;;;;;;;1.88;1.50;;;26.60;57.30;;;;;;5025512;28;20045;-59
2021/07/15 09:50:48;;;;;;;2.88;1.83;;;26.70;57.30;;;;;;5021880;28;20113;-56
2021/07/15 09:53:18;;;;;;;3.15;1.80;;;26.70;57.30;;;;;;5021205;28;20034;-54
2021/07/15 09:55:45;;;;;;;2.22;1.70;;;26.70;57.20;;;;;;5008946;28;20168;-59
2021/07/15 09:58:12;;;;;;;3.35;1.70;;;26.80;57.20;;;;;;5014243;28;20443;-62
2021/07/15 10:00:39;;;;;;;1.83;1.63;;;26.80;57.10;;;;;;5027241;28;20188;-60
2021/07/15 10:03:07;;;;;;;2.35;1.70;;;26.80;57.00;;;;;;5020704;28;20556;-62
2021/07/15 10:05:33;;;;;;;6.43;2.35;;;26.90;57.00;;;;;;5028278;28;20030;-55
2021/07/15 10:08:07;;;;;;;2.72;1.88;;;26.90;56.90;;;;;;5039679;28;20510;-60
2021/07/15 10:10:34;;;;;;;2.25;1.65;;;27.00;56.90;;;;;;5038883;28;20511;-59
2021/07/15 10:13:14;;;;;;;2.80;1.83;;;27.00;56.80;;;;;;5024769;28;20037;-59
2021/07/15 10:15:43;;;;;;;2.10;1.60;;;27.00;56.70;;;;;;5015557;28;20050;-54
2021/07/15 10:18:09;;;;;;;2.85;1.90;;;27.00;56.70;;;;;;5036781;28;20488;-59
2021/07/15 10:20:35;;;;;;;2.20;1.90;;;27.00;56.70;;;;;;5023179;28;20481;-57
2021/07/15 10:23:01;;;;;;;2.88;2.00;;;27.10;56.60;;;;;;5023421;28;20168;-58
2021/07/15 10:25:27;;;;;;;2.50;1.80;;;27.10;56.60;;;;;;5023294;28;20033;-58
2021/07/15 10:27:55;;;;;;;2.63;2.00;;;27.00;56.50;;;;;;5030322;28;20452;-57
2021/07/15 10:30:22;;;;;;;4.82;2.10;;;27.00;56.50;;;;;;5018749;28;20487;-58
2021/07/15 10:32:48;;;;;;;2.50;1.70;;;27.00;56.50;;;;;;5029026;28;20345;-59
2021/07/15 10:35:16;;;;;;;2.22;1.80;;;27.00;56.40;;;;;;5031937;28;20033;-57
2021/07/15 10:37:47;;;;;;;2.92;1.70;;;27.00;56.40;;;;;;5021110;28;20113;-56
2021/07/15 10:40:17;;;;;;;2.70;2.00;;;27.00;56.40;;;;;;5023979;28;20065;-59
2021/07/15 10:42:44;;;;;;;1.70;1.42;;;27.00;56.40;;;;;;5033441;28;20113;-56
2021/07/15 10:45:11;;;;;;;2.63;2.03;;;27.00;56.30;;;;;;5027131;28;20109;-59
2021/07/15 10:47:38;;;;;;;2.28;1.63;;;26.90;56.20;;;;;;5022214;28;20049;-59
2021/07/15 10:50:08;;;;;;;2.35;1.75;;;26.90;56.20;;;;;;5018256;28;20032;-59
2021/07/15 10:52:36;;;;;;;2.47;1.85;;;26.90;56.20;;;;;;5022299;28;20100;-59
2021/07/15 10:55:04;;;;;;;2.63;1.70;;;26.90;56.20;;;;;;5019411;28;20109;-57
2021/07/15 10:57:31;;;;;;;1.83;1.50;;;26.90;56.20;;;;;;5020245;28;20432;-59
2021/07/15 11:00:26;;;;;;;2.53;1.60;;;26.90;56.20;;;;;;5019148;28;20113;-57
2021/07/15 11:03:07;;;;;;;2.35;1.60;;;26.90;56.10;;;;;;5005110;28;20053;-56
2021/07/15 11:05:33;;;;;;;2.22;1.52;;;26.90;56.10;;;;;;5017109;28;20036;-58
2021/07/15 11:07:59;;;;;;;2.05;1.55;;;26.80;56.10;;;;;;5017723;28;20343;-59
2021/07/15 11:10:25;;;;;;;1.98;1.48;;;26.80;56.10;;;;;;5021956;28;20331;-54
2021/07/15 11:13:05;;;;;;;1.30;1.20;;;26.80;56.10;;;;;;5023620;28;20038;-57
2021/07/15 11:15:47;;;;;;;1.90;1.30;;;26.80;56.00;;;;;;5027419;28;20030;-57
2021/07/15 11:18:45;;;;;;;1.58;1.15;;;26.80;56.00;;;;;;5017710;28;20082;-53
2021/07/15 11:21:26;;;;;;;1.45;1.20;;;26.80;56.00;;;;;;5022729;28;20113;-55
2021/07/15 11:24:35;;;;;;;1.63;1.30;;;26.80;56.00;;;;;;5028486;28;20030;-58
2021/07/15 11:27:50;;;;;;;1.60;1.50;;;26.80;56.00;;;;;;4998604;28;20053;-54
2021/07/15 11:30:34;;;;;;;1.45;1.10;;;26.80;56.00;;;;;;5006927;28;20056;-59
2021/07/15 11:33:23;;;;;;;2.78;1.05;;;26.80;56.10;;;;;;5015049;28;20168;-56
2021/07/15 11:35:52;;;;;;;1.58;1.35;;;26.80;56.00;;;;;;5021521;28;20123;-58
2021/07/15 11:38:26;;;;;;;1.13;1.00;;;26.80;56.10;;;;;;5021025;28;20120;-58
2021/07/15 11:40:52;;;;;;;;;;;26.80;56.00;;;;;;5022773;28;20029;-60
2021/07/15 11:43:26;;;;;;;1.23;1.10;;;26.70;56.00;;;;;;5022109;28;19909;-53
2021/07/15 11:46:16;;;;;;;1.83;1.40;;;26.80;56.10;;;;;;5016856;28;20087;-61
2021/07/15 11:48:47;;;;;;;1.65;1.33;;;26.80;56.00;;;;;;5024365;28;20133;-59
2021/07/15 11:51:21;;;;;;;1.92;1.33;;;26.70;56.00;;;;;;5014444;28;20033;-58
2021/07/15 11:54:22;;;;;;;1.98;1.40;;;26.70;56.00;;;;;;5020491;28;20067;-58
2021/07/15 11:57:11;;;;;;;2.15;1.55;;;26.80;56.00;;;;;;5024190;28;20448;-59
2021/07/15 11:59:38;;;;;;;1.60;1.00;;;26.80;56.00;;;;;;5014899;28;20049;-58
2021/07/15 12:02:26;;;;;;;1.25;1.08;;;26.70;56.00;;;;;;5023811;28;20033;-60
2021/07/15 12:05:13;;;;;;;1.20;1.10;;;26.80;56.00;;;;;;5016346;28;20045;-54
2021/07/15 12:08:06;;;;;;;1.17;0.95;;;26.80;55.90;;;;;;5019528;28;20108;-61
2021/07/15 12:10:38;;;;;;;1.50;1.23;;;26.80;55.90;;;;;;5007600;28;20484;-56
2021/07/15 12:13:09;;;;;;;1.92;1.50;;;26.80;55.90;;;;;;5018871;28;20112;-56
2021/07/15 12:15:36;;;;;;;1.65;1.30;;;26.80;55.90;;;;;;5018457;28;20416;-56
2021/07/15 12:18:08;;;;;;;3.05;1.40;;;26.80;55.90;;;;;;5017245;28;20039;-58
2021/07/15 12:20:55;;;;;;;2.28;1.52;;;26.80;55.80;;;;;;5018262;28;20081;-62
2021/07/15 12:23:37;;;;;;;1.95;1.30;;;26.80;55.80;;;;;;5015764;28;20021;-60
2021/07/15 12:26:05;;;;;;;1.55;1.33;;;26.80;55.90;;;;;;5015395;28;20038;-59
2021/07/15 12:28:31;;;;;;;1.50;1.30;;;26.80;55.90;;;;;;5015634;28;20034;-60
2021/07/15 12:31:04;;;;;;;1.75;1.38;;;26.70;55.90;;;;;;5017782;28;20469;-57
2021/07/15 12:33:46;;;;;;;2.25;1.73;;;26.70;55.90;;;;;;5013207;28;20341;-61
2021/07/15 12:36:21;;;;;;;2.22;1.50;;;26.80;55.90;;;;;;5023498;28;20029;-59
2021/07/15 12:38:51;;;;;;;3.25;1.60;;;26.70;55.90;;;;;;5027798;28;20025;-60
2021/07/15 12:41:26;;;;;;;2.03;1.48;;;26.70;55.80;;;;;;5020058;28;20034;-59
2021/07/15 12:43:59;;;;;;;2.00;1.60;;;26.70;55.80;;;;;;5025690;28;20025;-60
2021/07/15 12:46:27;;;;;;;2.93;1.63;;;26.70;55.90;;;;;;5022720;28;20392;-58
2021/07/15 12:48:56;;;;;;;1.90;1.40;;;26.70;55.80;;;;;;5023219;28;20045;-55
2021/07/15 12:51:30;;;;;;;2.22;1.63;;;26.70;55.80;;;;;;5014439;28;20022;-61
2021/07/15 12:53:56;;;;;;;2.38;2.00;;;26.70;55.80;;;;;;5019297;28;20051;-62
2021/07/15 12:56:27;;;;;;;1.70;1.45;;;26.70;55.80;;;;;;5018322;28;20026;-55
2021/07/15 12:59:01;;;;;;;1.55;1.30;;;26.70;55.80;;;;;;5028872;28;20061;-59
2021/07/15 13:01:28;;;;;;;1.73;1.30;;;26.70;55.70;;;;;;5020046;28;20026;-58
2021/07/15 13:04:21;;;;;;;1.60;1.38;;;26.70;55.70;;;;;;5030447;28;20462;-62